Time;durP1;ratioP1;P1;durP2;ratioP2;P2;SDS_P1;SDS_P2;PMS_P1;PMS_P2;Temp;Humidity;BMP_temperature;BMP_pressure;BME280_temperature;BME280_humidity;BME280_pressure;Samples;Min_cycle;Max_cycle;Signal;HPM_P1;HPM_P2
2022/05/26 00:02:21;;;;;;;2.90;2.63;;;;;;;;;;5121275;28;20167;-84
2022/05/26 00:04:47;;;;;;;4.20;2.47;;;;;;;;;;5119871;28;20197;-85
2022/05/26 00:07:13;;;;;;;2.67;2.47;;;11.30;99.90;;;;;;5119588;28;20207;-85
2022/05/26 00:09:39;;;;;;;3.57;2.70;;;;;;;;;;5119675;28;20180;-85
2022/05/26 00:12:06;;;;;;;2.93;2.70;;;;;;;;;;5119958;28;20179;-84
2022/05/26 00:14:32;;;;;;;2.97;2.70;;;11.20;99.90;;;;;;5120119;28;20199;-85
2022/05/26 00:16:58;;;;;;;2.60;2.40;;;11.20;99.90;;;;;;5120467;28;20549;-85
2022/05/26 00:19:24;;;;;;;2.47;2.17;;;;;;;;;;5120290;28;20243;-85
2022/05/26 00:21:50;;;;;;;2.70;2.50;;;;;;;;;;5120581;28;20190;-85
2022/05/26 00:24:18;;;;;;;3.27;2.70;;;11.20;99.90;;;;;;5121814;28;20167;-85
2022/05/26 00:26:44;;;;;;;5.97;2.93;;;11.20;99.90;;;;;;5119639;28;20664;-85
2022/05/26 00:29:11;;;;;;;4.30;2.53;;;11.20;99.90;;;;;;5121228;28;20194;-86
2022/05/26 00:31:37;;;;;;;5.20;2.73;;;;;;;;;;5120455;28;20186;-85
2022/05/26 00:34:03;;;;;;;3.63;2.70;;;;;;;;;;5121323;28;20514;-85
2022/05/26 00:36:39;;;;;;;1.93;1.83;;;;;;;;;;5121616;28;20683;-84
2022/05/26 00:39:12;;;;;;;2.87;2.50;;;11.10;99.90;;;;;;5132600;28;20218;-84
2022/05/26 00:41:43;;;;;;;2.40;2.20;;;11.10;99.90;;;;;;5131942;28;20171;-84
2022/05/26 00:44:10;;;;;;;3.20;2.80;;;11.10;99.90;;;;;;5123225;28;20167;-85
2022/05/26 00:47:02;;;;;;;3.83;2.70;;;11.10;99.90;;;;;;5119181;28;20191;-85
2022/05/26 00:49:48;;;;;;;4.13;2.40;;;11.00;99.90;;;;;;5123255;28;20175;-85
2022/05/26 00:52:21;;;;;;;3.07;2.20;;;11.00;99.90;;;;;;5122547;28;20175;-85
2022/05/26 00:54:50;;;;;;;3.17;2.30;;;11.00;99.90;;;;;;5123337;28;20187;-85
2022/05/26 00:57:28;;;;;;;2.57;2.37;;;10.90;99.90;;;;;;5123557;28;20211;-85
2022/05/26 01:00:03;;;;;;;2.27;2.07;;;;;;;;;;5122893;28;20199;-85
2022/05/26 01:02:35;;;;;;;5.03;2.57;;;10.90;99.90;;;;;;5122797;28;20185;-85
2022/05/26 01:05:13;;;;;;;3.20;2.47;;;10.80;99.90;;;;;;5123094;28;20175;-85
2022/05/26 01:07:39;;;;;;;2.47;2.27;;;10.80;99.90;;;;;;5122674;28;20163;-85
2022/05/26 01:10:07;;;;;;;3.17;2.17;;;10.80;99.90;;;;;;5122735;28;20175;-84
2022/05/26 01:12:33;;;;;;;3.33;2.50;;;10.80;99.90;;;;;;5122331;28;20228;-85
2022/05/26 01:15:03;;;;;;;4.13;2.30;;;10.80;99.90;;;;;;5123246;28;20294;-84
2022/05/26 01:17:53;;;;;;;2.70;2.33;;;10.80;99.90;;;;;;5122859;28;20174;-84
2022/05/26 01:20:37;;;;;;;6.37;2.87;;;10.80;99.90;;;;;;5122558;28;20559;-84
2022/05/26 01:23:24;;;;;;;2.60;2.40;;;10.70;99.90;;;;;;5124035;28;20180;-84
2022/05/26 01:25:58;;;;;;;4.63;2.10;;;10.60;99.90;;;;;;5122200;28;20263;-84
2022/05/26 01:29:19;;;;;;;6.60;2.23;;;10.60;99.90;;;;;;5122159;28;20298;-84
2022/05/26 01:32:07;;;;;;;2.20;2.00;;;10.60;99.90;;;;;;5088647;28;20190;-84
2022/05/26 01:34:57;;;;;;;2.60;2.40;;;10.60;99.90;;;;;;5122376;28;20528;-84
2022/05/26 01:38:00;;;;;;;5.93;2.27;;;10.60;99.90;;;;;;5122308;28;20172;-84
2022/05/26 01:40:36;;;;;;;2.33;2.13;;;10.60;99.90;;;;;;5121869;28;20643;-84
2022/05/26 01:43:11;;;;;;;3.40;2.20;;;10.60;99.90;;;;;;5122355;28;20216;-84
2022/05/26 01:45:49;;;;;;;2.23;2.00;;;10.60;99.90;;;;;;5121657;28;20201;-84
2022/05/26 01:48:35;;;;;;;2.20;2.03;;;10.60;99.90;;;;;;5122089;28;20203;-84
2022/05/26 01:51:10;;;;;;;3.50;2.10;;;10.60;99.90;;;;;;5121612;28;20172;-84
2022/05/26 01:54:11;;;;;;;2.63;2.40;;;10.50;99.90;;;;;;5120924;28;20267;-84
2022/05/26 01:56:55;;;;;;;4.93;2.60;;;10.40;99.90;;;;;;5121469;28;20202;-84
2022/05/26 01:59:33;;;;;;;2.40;2.20;;;10.50;99.90;;;;;;5122033;28;20609;-84
2022/05/26 02:02:06;;;;;;;3.73;2.70;;;10.50;99.90;;;;;;5122630;28;20159;-84
2022/05/26 02:04:40;;;;;;;4.47;2.57;;;10.50;99.90;;;;;;5121659;28;20621;-84
2022/05/26 02:07:36;;;;;;;2.80;2.30;;;10.50;99.90;;;;;;5122554;28;20276;-84
2022/05/26 02:10:12;;;;;;;2.40;2.17;;;10.60;99.90;;;;;;5104774;28;20218;-84
2022/05/26 02:12:44;;;;;;;3.60;3.10;;;10.60;99.90;;;;;;5131753;28;20164;-84
2022/05/26 02:15:25;;;;;;;5.60;2.73;;;10.80;99.90;;;;;;5122632;28;20207;-84
2022/05/26 02:17:56;;;;;;;3.60;2.40;;;10.80;99.90;;;;;;5120836;28;20198;-84
2022/05/26 02:20:32;;;;;;;3.57;2.40;;;10.80;99.90;;;;;;5120598;28;20177;-84
2022/05/26 02:23:26;;;;;;;2.70;2.50;;;10.90;99.90;;;;;;5124305;28;20198;-84
2022/05/26 02:25:53;;;;;;;4.07;2.20;;;11.00;99.90;;;;;;5121662;28;20187;-83
2022/05/26 02:28:19;;;;;;;4.40;2.10;;;11.00;99.90;;;;;;5122245;28;20195;-84
2022/05/26 02:30:45;;;;;;;2.50;2.30;;;11.00;99.90;;;;;;5120849;28;20236;-84
2022/05/26 02:33:14;;;;;;;2.40;2.20;;;11.00;99.90;;;;;;5122671;28;20172;-84
2022/05/26 02:35:43;;;;;;;2.60;2.40;;;11.00;99.90;;;;;;5122313;28;20241;-84
2022/05/26 02:38:17;;;;;;;2.50;2.30;;;11.00;99.90;;;;;;5121019;28;20265;-84
2022/05/26 02:40:43;;;;;;;3.07;2.53;;;11.00;99.90;;;;;;5120439;28;20175;-84
2022/05/26 02:43:31;;;;;;;6.27;2.17;;;10.90;99.90;;;;;;5120885;28;20175;-83
2022/05/26 02:46:03;;;;;;;2.20;2.03;;;10.80;99.90;;;;;;5121706;28;20229;-83
2022/05/26 02:48:34;;;;;;;3.07;2.10;;;10.80;99.90;;;;;;5120500;28;20182;-84
2022/05/26 02:51:39;;;;;;;2.47;2.17;;;10.60;99.90;;;;;;5120509;28;20178;-84
2022/05/26 02:54:24;;;;;;;2.00;1.90;;;10.60;99.90;;;;;;5119935;28;20171;-84
2022/05/26 02:57:08;;;;;;;3.50;2.00;;;10.50;99.90;;;;;;5119964;28;20195;-84
2022/05/26 02:59:57;;;;;;;2.73;2.10;;;10.50;99.90;;;;;;5120160;28;20183;-84
2022/05/26 03:02:48;;;;;;;2.20;1.77;;;10.40;99.90;;;;;;5120176;28;20221;-84
2022/05/26 03:05:26;;;;;;;2.50;2.23;;;10.30;99.90;;;;;;5109402;28;20214;-84
2022/05/26 03:07:55;;;;;;;2.20;2.00;;;10.30;99.90;;;;;;5120121;28;20205;-84
2022/05/26 03:10:26;;;;;;;2.50;2.30;;;10.20;99.90;;;;;;5120000;28;20268;-84
2022/05/26 03:12:59;;;;;;;2.10;1.90;;;10.20;99.90;;;;;;5120571;28;20177;-84
2022/05/26 03:15:25;;;;;;;2.30;2.10;;;10.20;99.90;;;;;;5120741;28;20238;-84
2022/05/26 03:17:51;;;;;;;2.63;2.43;;;10.10;99.90;;;;;;5122073;28;20167;-84
2022/05/26 03:20:17;;;;;;;3.40;2.53;;;10.10;99.90;;;;;;5125559;28;20205;-83
2022/05/26 03:22:43;;;;;;;3.47;2.20;;;10.10;99.90;;;;;;5132400;28;20175;-84
2022/05/26 03:25:09;;;;;;;2.37;2.17;;;;;;;;;;5132916;27;20253;-83
2022/05/26 03:27:35;;;;;;;2.43;2.23;;;10.00;99.90;;;;;;5124673;28;20264;-84
2022/05/26 03:30:00;;;;;;;4.70;2.13;;;10.00;99.90;;;;;;5120037;28;20684;-84
2022/05/26 03:32:26;;;;;;;2.30;2.10;;;10.00;99.90;;;;;;5119717;28;20205;-83
2022/05/26 03:43:06;;;;;;;3.40;2.37;;;10.20;99.90;;;;;;5121104;28;20235;-84
2022/05/26 03:45:34;;;;;;;3.37;2.40;;;10.30;99.90;;;;;;5120838;28;20211;-84
2022/05/26 03:48:01;;;;;;;4.60;2.50;;;10.30;99.90;;;;;;5120471;28;20216;-84
2022/05/26 03:50:27;;;;;;;2.70;2.10;;;10.40;99.90;;;;;;5119689;28;20199;-84
2022/05/26 03:52:54;;;;;;;2.40;2.20;;;10.40;99.90;;;;;;5121211;28;20174;-84
2022/05/26 03:55:21;;;;;;;2.40;2.20;;;10.30;99.90;;;;;;5120597;28;20200;-84
2022/05/26 03:57:47;;;;;;;2.27;2.10;;;10.30;99.90;;;;;;5121005;28;20175;-84
2022/05/26 04:00:15;;;;;;;3.17;2.40;;;10.30;99.90;;;;;;5120293;28;20179;-84
2022/05/26 04:02:41;;;;;;;1.97;1.77;;;10.30;99.90;;;;;;5120448;28;20176;-84
2022/05/26 04:05:09;;;;;;;4.93;2.20;;;10.30;99.90;;;;;;5121715;28;20207;-84
2022/05/26 04:07:34;;;;;;;2.03;1.83;;;10.30;99.90;;;;;;5120081;28;20179;-84
2022/05/26 04:10:06;;;;;;;3.30;2.40;;;10.20;99.90;;;;;;5120749;28;20221;-84
2022/05/26 04:12:32;;;;;;;2.00;1.90;;;10.30;99.90;;;;;;5121017;28;20171;-84
2022/05/26 04:14:59;;;;;;;2.70;2.50;;;10.30;99.90;;;;;;5120713;28;20187;-84
2022/05/26 04:17:25;;;;;;;4.90;2.10;;;10.30;99.90;;;;;;5120974;28;20637;-84
2022/05/26 04:19:51;;;;;;;2.43;2.23;;;10.30;99.90;;;;;;5122065;28;20167;-84
2022/05/26 04:22:23;;;;;;;2.40;2.20;;;10.30;99.90;;;;;;5126507;28;20178;-85
2022/05/26 04:24:53;;;;;;;1.73;1.63;;;10.40;99.90;;;;;;5127090;28;20596;-84
2022/05/26 04:27:21;;;;;;;2.33;2.03;;;10.40;99.90;;;;;;5128151;27;20181;-84
2022/05/26 04:29:47;;;;;;;2.37;2.00;;;10.40;99.90;;;;;;5126122;28;20195;-84
2022/05/26 04:32:13;;;;;;;3.20;1.80;;;10.40;99.90;;;;;;5127662;28;20262;-84
2022/05/26 04:34:40;;;;;;;2.07;1.87;;;10.40;99.90;;;;;;5128599;27;20168;-84
2022/05/26 04:37:06;;;;;;;3.27;2.00;;;10.50;99.90;;;;;;5127100;28;20194;-84
2022/05/26 04:39:33;;;;;;;1.80;1.70;;;10.50;99.90;;;;;;5126662;28;20208;-84
2022/05/26 04:42:03;;;;;;;2.27;1.77;;;10.60;99.90;;;;;;5126949;28;20659;-84
2022/05/26 04:44:42;;;;;;;2.43;2.23;;;10.70;99.90;;;;;;5126592;28;20188;-84
2022/05/26 04:47:08;;;;;;;4.67;2.00;;;10.80;99.90;;;;;;5127779;27;20195;-84
2022/05/26 04:49:37;;;;;;;4.47;2.00;;;10.90;99.90;;;;;;5126801;28;20218;-84
2022/05/26 04:52:07;;;;;;;2.80;1.97;;;10.90;99.90;;;;;;5127461;28;20232;-85
2022/05/26 04:54:35;;;;;;;2.33;1.87;;;11.00;99.90;;;;;;5127135;28;20644;-84
2022/05/26 04:57:01;;;;;;;2.50;2.00;;;11.10;99.90;;;;;;5126783;28;20289;-84
2022/05/26 04:59:27;;;;;;;2.20;2.03;;;11.20;99.90;;;;;;5126587;28;20211;-84
2022/05/26 05:01:53;;;;;;;2.00;1.80;;;11.20;99.90;;;;;;5126843;28;20194;-84
2022/05/26 05:04:25;;;;;;;2.40;2.20;;;11.30;99.90;;;;;;5128303;27;20175;-85
2022/05/26 05:06:51;;;;;;;3.57;2.17;;;11.40;99.90;;;;;;5127523;28;20206;-84
2022/05/26 05:09:17;;;;;;;3.83;1.90;;;11.50;99.90;;;;;;5128045;28;20203;-84
2022/05/26 05:11:43;;;;;;;2.17;1.83;;;11.60;99.90;;;;;;5127333;28;20253;-84
2022/05/26 05:14:09;;;;;;;3.67;1.90;;;11.70;99.90;;;;;;5127135;28;20195;-85
2022/05/26 05:16:42;;;;;;;1.73;1.63;;;11.70;99.90;;;;;;5127807;28;20199;-84
2022/05/26 05:19:09;;;;;;;2.30;1.60;;;11.90;99.90;;;;;;5127609;28;20185;-85
2022/05/26 05:21:51;;;;;;;4.03;1.93;;;12.00;99.90;;;;;;5128951;27;20183;-84
2022/05/26 05:24:36;;;;;;;3.37;1.93;;;12.10;99.90;;;;;;5127826;27;20156;-84
2022/05/26 05:27:09;;;;;;;1.93;1.73;;;12.20;99.90;;;;;;5126472;28;20282;-85
2022/05/26 05:29:37;;;;;;;2.47;1.63;;;12.30;99.90;;;;;;5126403;28;20221;-84
2022/05/26 05:32:12;;;;;;;4.10;1.67;;;12.30;99.90;;;;;;5127424;28;20655;-85
2022/05/26 05:34:42;;;;;;;1.93;1.73;;;12.50;99.90;;;;;;5123644;28;20269;-85
2022/05/26 05:37:09;;;;;;;4.63;1.40;;;12.50;99.90;;;;;;5123960;28;20195;-84
2022/05/26 05:39:35;;;;;;;2.43;1.80;;;12.50;99.90;;;;;;5123659;28;20183;-85
2022/05/26 05:42:01;;;;;;;2.03;1.40;;;12.60;99.90;;;;;;5123890;28;20205;-85
2022/05/26 05:44:27;;;;;;;2.17;1.77;;;12.60;99.90;;;;;;5125152;28;20538;-83
2022/05/26 05:46:57;;;;;;;3.03;1.63;;;12.60;99.90;;;;;;5123568;28;20225;-84
2022/05/26 05:49:27;;;;;;;1.70;1.50;;;12.70;99.90;;;;;;5125457;28;20211;-84
2022/05/26 05:51:54;;;;;;;2.80;1.80;;;12.70;99.90;;;;;;5125606;28;20164;-85
2022/05/26 05:54:20;;;;;;;2.57;1.50;;;12.70;99.90;;;;;;5132081;28;20196;-85
2022/05/26 05:56:47;;;;;;;2.43;1.47;;;12.80;99.90;;;;;;5126954;28;20202;-84
2022/05/26 05:59:13;;;;;;;2.23;1.60;;;12.90;99.90;;;;;;5124329;28;20171;-84
2022/05/26 06:01:39;;;;;;;1.97;1.50;;;13.00;99.90;;;;;;5123602;28;20176;-84
2022/05/26 06:04:06;;;;;;;1.83;1.40;;;13.00;99.90;;;;;;5123470;28;20236;-84
2022/05/26 06:06:43;;;;;;;2.13;1.50;;;13.10;99.90;;;;;;5123486;28;20694;-84
2022/05/26 06:09:13;;;;;;;2.40;1.67;;;13.10;99.90;;;;;;5125294;28;20195;-84
2022/05/26 06:11:40;;;;;;;4.00;1.67;;;13.20;99.90;;;;;;5123512;28;20172;-84
2022/05/26 06:14:06;;;;;;;1.40;1.20;;;13.30;99.90;;;;;;5123248;28;20568;-84
2022/05/26 06:16:33;;;;;;;2.97;1.50;;;13.50;99.90;;;;;;5124925;28;20212;-84
2022/05/26 06:18:58;;;;;;;1.87;1.37;;;13.50;99.90;;;;;;5125291;28;20258;-84
2022/05/26 06:21:24;;;;;;;1.50;1.40;;;13.70;99.90;;;;;;5123127;28;20211;-84
2022/05/26 06:23:52;;;;;;;2.80;1.40;;;13.80;99.90;;;;;;5124505;28;20512;-84
2022/05/26 06:26:18;;;;;;;1.73;1.03;;;13.80;99.90;;;;;;5122934;28;20199;-84
2022/05/26 06:31:28;;;;;;;3.63;1.10;;;14.10;99.90;;;;;;5124395;28;20234;-85
2022/05/26 06:39:24;;;;;;;2.30;1.40;;;14.30;99.90;;;;;;5125605;28;20239;-84
2022/05/26 06:42:06;;;;;;;3.93;1.50;;;14.10;99.90;;;;;;5123796;28;20199;-85
2022/05/26 06:44:33;;;;;;;3.40;1.30;;;14.00;99.90;;;;;;5122499;28;20183;-84
2022/05/26 06:46:59;;;;;;;2.20;1.30;;;13.90;99.90;;;;;;5122211;28;20191;-84
2022/05/26 06:49:25;;;;;;;1.70;1.17;;;13.90;99.90;;;;;;5122764;28;20214;-84
2022/05/26 06:51:50;;;;;;;1.83;1.30;;;14.00;99.90;;;;;;5123344;28;20235;-84
2022/05/26 06:54:17;;;;;;;2.23;1.30;;;14.10;99.90;;;;;;5121959;28;20576;-84
2022/05/26 06:56:43;;;;;;;1.87;1.40;;;14.20;99.90;;;;;;5121812;28;20200;-84
2022/05/26 06:59:09;;;;;;;5.10;0.90;;;14.30;99.90;;;;;;5122844;28;20731;-86
2022/05/26 07:01:34;;;;;;;2.03;1.40;;;14.50;99.90;;;;;;5122045;28;20636;-84
2022/05/26 07:04:00;;;;;;;1.47;1.20;;;14.60;99.90;;;;;;5120974;28;20179;-84
2022/05/26 07:06:28;;;;;;;1.70;0.90;;;14.60;99.90;;;;;;5121812;28;20205;-84
2022/05/26 07:08:53;;;;;;;2.30;1.20;;;14.70;99.90;;;;;;5121129;28;20538;-84
2022/05/26 07:11:20;;;;;;;1.73;1.00;;;14.80;99.90;;;;;;5121783;28;20175;-84
2022/05/26 07:13:46;;;;;;;2.50;1.00;;;14.90;99.90;;;;;;5121003;28;20187;-84
2022/05/26 07:16:13;;;;;;;3.03;1.10;;;14.90;99.90;;;;;;5121099;28;20192;-84
2022/05/26 07:18:40;;;;;;;2.83;1.10;;;15.00;99.90;;;;;;5120709;28;20189;-84
2022/05/26 07:21:08;;;;;;;2.73;1.23;;;15.10;99.90;;;;;;5120583;28;20175;-84
2022/05/26 07:23:34;;;;;;;1.10;0.80;;;15.20;99.90;;;;;;5123244;28;20206;-84
2022/05/26 07:26:05;;;;;;;4.20;1.03;;;15.30;99.90;;;;;;5123193;28;20269;-84
2022/05/26 07:28:33;;;;;;;1.37;0.90;;;15.30;99.90;;;;;;5126700;28;20168;-83
2022/05/26 07:30:59;;;;;;;1.23;1.03;;;15.40;99.90;;;;;;5124795;28;20178;-84
2022/05/26 07:33:24;;;;;;;1.47;1.00;;;15.60;99.90;;;;;;5121820;28;20179;-84
2022/05/26 07:35:50;;;;;;;4.50;0.97;;;15.60;99.90;;;;;;5122177;28;20524;-84
2022/05/26 07:41:16;;;;;;;2.70;0.80;;;15.80;99.90;;;;;;5122066;28;20689;-84
2022/05/26 07:43:49;;;;;;;1.00;0.90;;;15.90;99.90;;;;;;5122306;28;20152;-83
2022/05/26 07:46:16;;;;;;;1.77;0.90;;;16.00;99.90;;;;;;5121899;28;20199;-83
2022/05/26 07:48:42;;;;;;;1.77;0.77;;;16.10;99.90;;;;;;5122932;28;20176;-84
2022/05/26 07:51:08;;;;;;;2.50;0.90;;;16.30;99.90;;;;;;5122863;28;20172;-83
2022/05/26 07:53:33;;;;;;;1.70;1.10;;;16.40;99.90;;;;;;5122257;28;20175;-83
2022/05/26 07:56:01;;;;;;;2.03;0.83;;;16.50;99.90;;;;;;5121652;28;20223;-83
2022/05/26 07:58:28;;;;;;;2.40;0.80;;;16.70;99.90;;;;;;5123381;28;20164;-83
2022/05/26 08:00:54;;;;;;;1.87;1.07;;;16.70;99.90;;;;;;5122343;28;20243;-83
2022/05/26 08:03:21;;;;;;;4.33;1.07;;;16.90;99.90;;;;;;5122176;28;20195;-83
2022/05/26 08:05:47;;;;;;;1.83;0.93;;;16.90;99.90;;;;;;5122546;28;20199;-83
2022/05/26 08:08:12;;;;;;;1.60;0.97;;;16.80;99.90;;;;;;5122581;28;20185;-84
2022/05/26 08:10:39;;;;;;;1.40;0.90;;;;;;;;;;5121808;28;20206;-82
2022/05/26 08:13:05;;;;;;;1.53;0.83;;;16.40;99.90;;;;;;5118584;28;20207;-82
2022/05/26 08:15:32;;;;;;;2.20;0.90;;;16.40;99.90;;;;;;5120753;28;20191;-83
2022/05/26 08:17:58;;;;;;;2.03;1.03;;;16.40;99.90;;;;;;5119999;28;20211;-83
2022/05/26 08:20:25;;;;;;;1.07;0.97;;;16.50;99.90;;;;;;5120727;28;20178;-82
2022/05/26 08:22:50;;;;;;;2.37;1.00;;;16.60;99.90;;;;;;5120239;28;20186;-82
2022/05/26 08:25:16;;;;;;;1.43;1.10;;;16.80;99.90;;;;;;5121990;28;20200;-82
2022/05/26 08:27:42;;;;;;;1.50;0.90;;;17.20;99.90;;;;;;5120055;28;20204;-83
2022/05/26 08:30:08;;;;;;;2.00;1.00;;;17.50;99.90;;;;;;5120218;28;20236;-83
2022/05/26 08:32:34;;;;;;;1.33;0.90;;;17.60;99.90;;;;;;5122334;28;20621;-83
2022/05/26 08:35:04;;;;;;;1.17;0.80;;;17.60;99.90;;;;;;5118617;28;20177;-83
2022/05/26 08:37:31;;;;;;;2.33;0.90;;;17.40;99.90;;;;;;5122197;28;20239;-83
2022/05/26 08:39:57;;;;;;;2.73;1.00;;;17.10;99.90;;;;;;5120193;28;20186;-83
2022/05/26 08:42:28;;;;;;;2.00;0.80;;;16.90;99.90;;;;;;5121310;28;20180;-82
2022/05/26 08:44:58;;;;;;;2.33;1.20;;;16.80;99.90;;;;;;5120351;28;20194;-83
2022/05/26 08:47:33;;;;;;;1.47;0.80;;;16.60;99.90;;;;;;5119560;28;20170;-82
2022/05/26 08:50:13;;;;;;;3.43;1.00;;;16.80;99.90;;;;;;5118714;28;20674;-84
2022/05/26 08:53:01;;;;;;;1.63;0.80;;;17.20;99.90;;;;;;5118422;28;20313;-84
2022/05/26 08:55:48;;;;;;;3.27;0.93;;;17.50;99.90;;;;;;5121329;28;20277;-85
2022/05/26 08:58:25;;;;;;;4.50;0.90;;;17.30;99.90;;;;;;5119585;28;20541;-85
2022/05/26 09:00:52;;;;;;;3.63;1.10;;;17.20;99.90;;;;;;5120349;28;20181;-84
2022/05/26 09:03:25;;;;;;;3.17;1.50;;;17.00;99.90;;;;;;5119968;28;20186;-84
2022/05/26 09:06:00;;;;;;;3.47;1.30;;;16.90;99.90;;;;;;5119427;28;20209;-84
2022/05/26 09:13:59;;;;;;;1.07;0.80;;;16.90;99.90;;;;;;5123699;28;20228;-84
2022/05/26 09:16:28;;;;;;;2.13;1.13;;;17.10;99.90;;;;;;5123685;28;20206;-84
2022/05/26 09:19:15;;;;;;;3.13;1.00;;;17.40;99.90;;;;;;5123097;28;20188;-84
2022/05/26 09:21:42;;;;;;;7.27;1.77;;;17.60;99.90;;;;;;5122923;28;20193;-85
2022/05/26 09:24:31;;;;;;;1.00;0.90;;;17.70;99.90;;;;;;5124112;28;20177;-84
2022/05/26 09:27:08;;;;;;;1.80;0.97;;;17.60;99.90;;;;;;5123033;28;20192;-84
2022/05/26 09:29:37;;;;;;;2.13;0.80;;;17.60;99.90;;;;;;5125683;28;20204;-84
2022/05/26 09:32:05;;;;;;;1.13;0.97;;;17.60;99.90;;;;;;5132283;28;20166;-84
2022/05/26 09:34:33;;;;;;;1.70;1.10;;;17.40;99.90;;;;;;5132971;28;20179;-84
2022/05/26 09:37:07;;;;;;;2.30;1.27;;;17.20;99.90;;;;;;5127539;28;20195;-84
2022/05/26 09:39:37;;;;;;;1.70;1.03;;;17.20;99.90;;;;;;5120541;28;20184;-84
2022/05/26 09:42:26;;;;;;;2.10;0.80;;;17.20;99.90;;;;;;5122687;28;20178;-85
2022/05/26 09:44:54;;;;;;;3.97;1.27;;;18.10;99.90;;;;;;5120416;28;20213;-84
2022/05/26 09:47:43;;;;;;;3.33;0.90;;;18.10;99.90;;;;;;5123015;28;20178;-85
2022/05/26 09:50:29;;;;;;;3.90;1.03;;;18.10;99.90;;;;;;5120593;28;20225;-84
2022/05/26 09:52:55;;;;;;;1.20;1.00;;;18.00;99.90;;;;;;5120459;28;20277;-85
2022/05/26 09:55:24;;;;;;;1.70;0.77;;;18.10;99.90;;;;;;5122238;28;20225;-84
2022/05/26 09:58:21;;;;;;;1.90;0.97;;;18.20;99.90;;;;;;5121226;28;20193;-84
2022/05/26 10:00:48;;;;;;;1.47;0.80;;;18.50;99.90;;;;;;5120704;28;20175;-84
2022/05/26 10:03:46;;;;;;;1.83;1.00;;;19.20;99.90;;;;;;5121400;28;20218;-84
2022/05/26 10:06:35;;;;;;;1.60;1.10;;;19.50;99.90;;;;;;5112624;28;20217;-85
2022/05/26 10:09:56;;;;;;;5.73;1.50;;;20.20;99.90;;;;;;5120846;28;20206;-85
2022/05/26 10:12:28;;;;;;;2.80;1.03;;;19.80;99.90;;;;;;5079072;28;20183;-85
2022/05/26 10:15:06;;;;;;;2.67;0.90;;;20.10;99.90;;;;;;5118970;28;20202;-84
2022/05/26 10:17:44;;;;;;;2.77;1.20;;;20.80;99.90;;;;;;5120187;28;20160;-85
2022/05/26 10:20:13;;;;;;;1.67;1.10;;;21.60;99.90;;;;;;5121485;28;20179;-85
2022/05/26 10:22:57;;;;;;;1.60;1.30;;;21.70;99.90;;;;;;5121290;28;20175;-85
2022/05/26 10:25:28;;;;;;;1.67;1.00;;;21.40;99.90;;;;;;5120642;28;20598;-85
2022/05/26 10:28:09;;;;;;;1.70;1.10;;;21.30;99.90;;;;;;5121247;28;20179;-85
2022/05/26 10:30:47;;;;;;;3.20;1.33;;;20.80;99.90;;;;;;5121571;28;20203;-85
2022/05/26 10:33:21;;;;;;;1.53;1.10;;;20.70;99.90;;;;;;5121814;28;20195;-85
2022/05/26 10:35:58;;;;;;;4.73;1.00;;;20.60;99.90;;;;;;5123042;28;20282;-85
2022/05/26 10:38:44;;;;;;;1.80;1.00;;;20.50;99.90;;;;;;5121973;28;20183;-85
2022/05/26 10:41:18;;;;;;;1.40;0.83;;;21.10;99.90;;;;;;5121357;28;20206;-85
2022/05/26 10:43:59;;;;;;;5.63;0.90;;;21.80;99.90;;;;;;5123257;28;20246;-85
2022/05/26 10:46:28;;;;;;;1.10;0.90;;;21.70;99.90;;;;;;5123148;28;20252;-86
2022/05/26 10:48:56;;;;;;;2.60;1.40;;;21.50;99.90;;;;;;5126298;28;20252;-85
2022/05/26 10:51:29;;;;;;;1.27;0.90;;;21.20;99.90;;;;;;5126004;28;20176;-85
2022/05/26 10:54:06;;;;;;;1.73;0.90;;;21.50;99.90;;;;;;5123868;28;20170;-84
2022/05/26 10:56:39;;;;;;;0.80;0.80;;;20.80;99.90;;;;;;5125017;28;20195;-84
2022/05/26 10:59:17;;;;;;;1.00;0.67;;;20.20;99.90;;;;;;5121739;28;20191;-84
2022/05/26 11:01:48;;;;;;;1.20;0.97;;;19.90;99.90;;;;;;5123440;28;20195;-85
2022/05/26 11:04:40;;;;;;;1.83;1.17;;;20.90;99.90;;;;;;5123765;28;20183;-84
2022/05/26 11:07:12;;;;;;;3.03;1.20;;;20.80;99.90;;;;;;5122323;28;20207;-84
2022/05/26 11:10:03;;;;;;;1.83;1.03;;;20.80;99.90;;;;;;5121183;28;20270;-84
2022/05/26 11:12:38;;;;;;;0.80;0.70;;;21.00;99.90;;;;;;5121383;28;20270;-84
2022/05/26 11:18:04;;;;;;;1.93;1.17;;;22.10;99.90;;;;;;5121003;28;20611;-84
2022/05/26 11:20:39;;;;;;;1.30;1.20;;;21.70;99.90;;;;;;5119337;28;20271;-84
2022/05/26 11:23:07;;;;;;;1.47;0.83;;;;;;;;;;5118779;28;20186;-84
2022/05/26 11:25:38;;;;;;;1.30;1.17;;;22.70;99.90;;;;;;5118951;28;20280;-83
2022/05/26 11:28:19;;;;;;;1.03;0.80;;;22.70;99.90;;;;;;5120337;28;20179;-83
2022/05/26 11:36:51;;;;;;;1.20;0.70;;;22.20;99.90;;;;;;5121370;28;20646;-84
2022/05/26 11:39:29;;;;;;;9.40;1.10;;;21.90;99.90;;;;;;5125140;28;20176;-84
2022/05/26 11:42:05;;;;;;;1.67;1.07;;;21.80;99.90;;;;;;5122042;28;20582;-85
2022/05/26 11:44:43;;;;;;;1.70;1.10;;;21.30;98.30;;;;;;5120754;28;20236;-84
2022/05/26 11:47:50;;;;;;;1.07;0.83;;;22.70;97.10;;;;;;5119979;28;20195;-85
2022/05/26 11:50:49;;;;;;;1.40;0.87;;;22.80;96.40;;;;;;5119570;28;20207;-84
2022/05/26 11:53:30;;;;;;;1.97;0.97;;;22.80;97.10;;;;;;5120471;28;20713;-84
2022/05/26 11:56:03;;;;;;;2.03;1.00;;;;;;;;;;5120543;28;20244;-84
2022/05/26 11:58:29;;;;;;;3.57;1.17;;;;;;;;;;5120804;28;20188;-84
2022/05/26 12:01:19;;;;;;;3.40;1.03;;;22.60;99.90;;;;;;5121057;28;20649;-84
2022/05/26 12:04:20;;;;;;;1.90;1.03;;;22.90;99.90;;;;;;5112214;28;20187;-84
2022/05/26 12:06:57;;;;;;;1.60;0.97;;;25.10;98.60;;;;;;5108999;28;20206;-84
2022/05/26 12:09:54;;;;;;;2.63;0.97;;;25.20;97.70;;;;;;5120015;28;20260;-84
2022/05/26 12:12:24;;;;;;;1.83;0.80;;;25.60;98.70;;;;;;5121282;28;20172;-84
2022/05/26 12:14:52;;;;;;;1.73;1.00;;;;;;;;;;5122605;28;20249;-84
2022/05/26 12:17:30;;;;;;;0.80;0.80;;;26.10;96.00;;;;;;5119180;28;20170;-84
2022/05/26 12:20:11;;;;;;;2.90;1.00;;;25.10;91.60;;;;;;5118467;28;20240;-84
2022/05/26 12:22:38;;;;;;;1.30;0.80;;;24.90;90.70;;;;;;5119168;28;20537;-84
2022/05/26 12:25:07;;;;;;;1.30;0.60;;;;;;;;;;5117914;28;20286;-85
2022/05/26 12:27:51;;;;;;;1.43;0.80;;;25.50;95.30;;;;;;5120278;28;20171;-84
2022/05/26 12:30:44;;;;;;;2.47;0.70;;;26.10;92.90;;;;;;5118835;28;20200;-85
2022/05/26 12:33:22;;;;;;;2.73;0.90;;;25.20;93.80;;;;;;5120158;28;20174;-85
2022/05/26 12:35:50;;;;;;;2.50;0.90;;;25.30;92.80;;;;;;5119099;28;20198;-85
2022/05/26 12:38:38;;;;;;;2.77;0.97;;;25.80;94.00;;;;;;5119323;28;20199;-85
2022/05/26 12:41:20;;;;;;;1.53;0.80;;;26.30;91.20;;;;;;5121034;28;20211;-84
2022/05/26 12:43:57;;;;;;;2.13;0.90;;;26.60;86.30;;;;;;5123202;28;20180;-84
2022/05/26 12:46:25;;;;;;;3.83;1.00;;;;;;;;;;5125252;28;20245;-85
2022/05/26 12:49:11;;;;;;;3.23;0.80;;;26.90;86.60;;;;;;5124746;28;20165;-85
2022/05/26 12:51:39;;;;;;;1.57;0.90;;;25.70;90.50;;;;;;5124971;28;20514;-85
2022/05/26 12:54:11;;;;;;;1.53;0.80;;;25.70;96.10;;;;;;5123181;28;20714;-84
2022/05/26 12:56:49;;;;;;;1.00;0.60;;;26.20;97.30;;;;;;5124454;28;20189;-84
2022/05/26 12:59:20;;;;;;;4.10;0.80;;;26.00;97.30;;;;;;5125032;28;20177;-83
2022/05/26 13:01:48;;;;;;;2.00;0.70;;;26.60;91.10;;;;;;5123411;28;20180;-84
2022/05/26 13:04:32;;;;;;;0.87;0.80;;;26.90;89.20;;;;;;5123139;28;20184;-84
2022/05/26 13:07:05;;;;;;;2.20;0.70;;;26.00;81.00;;;;;;5123035;28;20692;-84
2022/05/26 13:09:49;;;;;;;7.57;3.97;;;24.50;85.40;;;;;;5123834;28;20764;-85
2022/05/26 13:12:23;;;;;;;4.33;3.57;;;24.60;85.20;;;;;;5123399;28;20258;-84
2022/05/26 13:14:52;;;;;;;3.33;1.90;;;26.10;92.20;;;;;;5122667;28;20186;-85
2022/05/26 13:17:23;;;;;;;1.87;0.93;;;26.70;79.00;;;;;;5123816;28;20194;-84
2022/05/26 13:19:51;;;;;;;1.03;0.90;;;26.90;82.80;;;;;;5122786;28;20190;-84
2022/05/26 13:22:39;;;;;;;2.47;0.70;;;26.80;79.30;;;;;;5123148;28;20178;-84
2022/05/26 13:25:19;;;;;;;0.63;0.60;;;27.10;99.90;;;;;;5123745;28;20200;-84
2022/05/26 13:27:56;;;;;;;1.33;0.90;;;26.90;84.70;;;;;;5124212;28;20176;-85
2022/05/26 13:33:22;;;;;;;1.60;0.77;;;26.20;78.20;;;;;;5123559;28;20262;-85
2022/05/26 13:36:02;;;;;;;2.07;0.87;;;26.30;94.80;;;;;;5122342;28;20218;-85
2022/05/26 13:38:28;;;;;;;2.47;0.90;;;;;;;;;;5122275;28;20535;-84
2022/05/26 13:40:56;;;;;;;4.30;0.70;;;26.50;70.70;;;;;;5120729;28;20223;-87
2022/05/26 13:43:22;;;;;;;2.47;1.00;;;;;;;;;;5122171;28;20200;-85
2022/05/26 13:45:48;;;;;;;2.50;1.00;;;;;;;;;;5120772;28;20770;-85
2022/05/26 13:48:29;;;;;;;1.17;0.80;;;27.20;92.90;;;;;;5120492;28;20235;-85
2022/05/26 13:51:17;;;;;;;1.97;1.00;;;27.40;77.80;;;;;;5122410;28;20243;-86
2022/05/26 13:53:49;;;;;;;1.63;0.80;;;27.30;80.20;;;;;;5121122;28;20181;-84
2022/05/26 13:56:32;;;;;;;1.23;0.80;;;26.30;77.10;;;;;;5122478;28;20194;-84
2022/05/26 13:59:04;;;;;;;2.57;0.80;;;26.50;76.90;;;;;;5122909;28;20224;-84
2022/05/26 14:01:30;;;;;;;5.50;2.50;;;;;;;;;;5121781;28;20168;-85